Latest Weather Observations for Kingaroy

IDQ60901

Issued at 10:11 am EST Saturday 29 August 2015 (issued every 10 minutes, with the page automatically refreshed every 10 minutes)

About weather observations | Map of Brisbane area stations | Latest observations for Brisbane area | Other Formats
Station Details ID: 040922 Name: KINGAROY AIRPORT Lat: -26.57 Lon: 151.84 Height: 433.67 m
Data from the previous 72 hours. | See also: Recent months at Kingaroy
Date/Time
EST
Tmp

°C
App
Tmp
°C
Dew
Point
°C
Rel
Hum
%
Delta-T

°C
Wind Press
QNH
hPa
Press
MSL
hPa
Rain
since
9 am
mm
Dir
 
Spd
km/h
Gust
km/h
Spd
kts
Gust
kts
29/10:00am 17.4 15.5 9.1 58 4.4 ESE 9 11 5 6 1023.2 1023.0 0.0
29/09:30am 17.2 14.6 7.8 54 4.9 ESE 11 15 6 8 1023.4 1023.2 0.0
29/09:00am 15.8 12.9 6.5 54 4.6 E 11 15 6 8 1023.7 1023.4 0.0
29/08:30am 15.8 13.3 6.5 54 4.6 E 9 17 5 9 1023.5 1023.3 0.0
29/08:00am 12.6 10.7 6.6 67 2.9 SW 6 9 3 5 1023.7 1023.4 0.0
29/07:30am 11.4 10.3 6.9 74 2.2 E 2 6 1 3 1023.2 1023.0 0.0
29/07:00am 10.5 9.9 7.2 80 1.6 CALM 0 0 0 0 1023.2 1023.0 0.0
29/06:30am 9.6 8.0 6.3 80 1.6 SSE 4 9 2 5 1022.6 1022.3 0.0
29/06:00am 9.4 7.5 6.8 84 1.2 S 6 9 3 5 1022.8 1022.6 0.0
29/05:30am 9.5 8.1 7.1 85 1.2 E 4 7 2 4 1022.4 1022.1 0.0
29/05:00am 9.6 8.4 6.3 80 1.6 SSW 2 9 1 5 1022.6 1022.3 0.0
29/04:30am 9.8 7.9 6.9 82 1.4 SSE 6 9 3 5 1022.0 1021.7 0.0
29/04:00am 9.8 8.8 5.8 76 1.9 CALM 0 0 0 0 1022.0 1021.7 0.0
29/03:30am 9.7 7.4 5.5 75 2.0 SE 7 11 4 6 1022.1 1021.8 0.0
29/03:00am 9.7 7.6 5.9 77 1.8 SE 6 9 3 5 1022.5 1022.2 0.0
29/02:30am 9.9 7.3 6.2 78 1.8 SSE 9 11 5 6 1023.1 1022.9 0.0
29/02:00am 9.4 7.1 5.8 78 1.7 S 7 9 4 5 1023.1 1022.9 0.0
29/01:30am 9.7 6.9 5.3 74 2.0 S 9 11 5 6 1023.2 1023.0 0.0
29/01:00am 10.7 9.3 5.7 71 2.4 S 2 7 1 4 1023.3 1023.1 0.0
29/12:30am 11.2 8.4 5.3 67 2.8 SE 9 13 5 7 1023.4 1023.2 0.0
29/12:00am 11.5 7.2 5.4 66 2.9 SSE 17 20 9 11 1023.4 1023.2 0.0
 
Date/Time
EST
Tmp

°C
App
Tmp
°C
Dew
Point
°C
Rel
Hum
%
Delta-T

°C
Wind Press
QNH
hPa
Press
MSL
hPa
Rain
since
9 am
mm
Dir
 
Spd
km/h
Gust
km/h
Spd
kts
Gust
kts
28/11:30pm 11.7 8.1 5.1 64 3.1 SSE 13 20 7 11 1022.9 1022.7 0.0
28/11:00pm 11.7 8.5 5.1 64 3.1 SSE 11 17 6 9 1023.0 1022.8 0.0
28/10:30pm 12.3 8.4 5.2 62 3.4 SSE 15 20 8 11 1023.3 1023.1 0.0
28/10:00pm 12.4 8.6 5.8 64 3.2 SSE 15 22 8 12 1023.0 1022.8 0.0
28/09:30pm 12.4 9.0 5.8 64 3.2 SSE 13 17 7 9 1023.1 1022.9 0.0
28/09:00pm 12.4 9.4 6.2 66 3.0 SSE 11 13 6 7 1023.3 1023.1 0.0
28/08:30pm 13.1 9.9 6.9 66 3.1 S 13 19 7 10 1023.2 1023.0 0.0
28/08:00pm 13.9 10.0 7.0 63 3.4 S 17 20 9 11 1023.1 1022.9 0.0
28/07:30pm 15.2 10.4 7.2 59 4.0 SSW 22 28 12 15 1022.7 1022.5 0.0
28/07:00pm 14.3 11.5 8.5 68 3.0 S 13 15 7 8 1022.1 1021.8 0.0
28/06:30pm 15.7 12.8 8.2 61 3.9 S 13 15 7 8 1021.9 1021.6 0.0
28/06:00pm 15.4 12.5 8.2 62 3.7 S 13 15 7 8 1021.6 1021.3 0.0
28/05:30pm 17.4 13.3 8.0 54 4.9 SSW 19 24 10 13 1020.7 1020.5 0.0
28/05:00pm 19.2 15.4 7.6 47 6.0 S 17 20 9 11 1020.4 1020.1 0.0
28/04:30pm 19.9 15.5 7.6 45 6.4 SSE 20 26 11 14 1020.3 1020.0 0.0
28/04:00pm 20.7 16.4 7.7 43 6.8 S 20 28 11 15 1020.1 1019.8 0.0
28/03:30pm 21.0 16.5 6.9 40 7.3 SSE 20 28 11 15 1019.8 1019.5 0.0
28/03:00pm 21.2 17.0 8.1 43 7.0 S 20 26 11 14 1020.0 1019.7 0.0
28/02:30pm 21.5 18.7 8.7 44 6.9 S 13 20 7 11 1020.0 1019.7 0.0
28/02:00pm 22.0 18.9 10.2 47 6.5 S 17 22 9 12 1020.2 1019.9 0.0
28/01:30pm 21.1 18.6 9.7 48 6.3 S 13 22 7 12 1020.6 1020.3 0.0
28/01:00pm 21.3 18.3 9.2 46 6.6 S 15 22 8 12 1020.9 1020.7 0.0
28/12:30pm 20.4 17.9 8.1 45 6.5 SW 11 20 6 11 1021.6 1021.3 0.0
28/12:00pm 19.9 17.8 8.3 47 6.1 SSE 9 17 5 9 1022.0 1021.7 0.0
28/11:30am 19.3 16.9 8.6 50 5.7 SSE 11 17 6 9 1022.5 1022.2 0.0
28/11:00am 18.6 15.5 8.8 53 5.2 S 15 20 8 11 1023.1 1022.9 0.0
28/10:30am 16.9 14.1 8.6 58 4.4 S 13 17 7 9 1023.4 1023.2 0.0
28/10:00am 16.4 13.9 10.9 70 3.0 S 15 20 8 11 1023.7 1023.4 0.0
28/09:30am 14.6 11.7 11.0 79 2.0 S 17 20 9 11 1023.7 1023.4 0.0
28/09:00am 14.8 13.0 12.1 84 1.5 S 13 17 7 9 1023.9 1023.6 1.4
28/08:30am 14.4 12.3 11.2 81 1.7 S 13 17 7 9 1023.9 1023.6 1.2
28/08:00am 13.7 10.2 11.0 84 1.4 S 20 24 11 13 1023.4 1023.2 1.2
28/07:30am 13.6 10.4 11.8 89 1.0 S 20 26 11 14 1023.1 1022.9 1.2
28/07:00am 13.4 10.2 12.0 91 0.8 S 20 26 11 14 1022.7 1022.5 1.2
28/06:30am 13.3 9.7 12.0 92 0.7 S 22 28 12 15 1022.3 1022.0 1.2
28/06:00am 13.5 10.0 12.2 92 0.7 S 22 30 12 16 1022.1 1021.8 1.2
28/05:30am 13.7 11.2 12.4 92 0.7 S 17 20 9 11 1021.8 1021.5 1.2
28/05:00am 14.1 13.1 13.5 96 0.3 S 11 26 6 14 1021.5 1021.2 1.2
28/04:30am 14.2 14.3 13.9 98 0.2 SE 6 7 3 4 1020.8 1020.6 1.2
28/04:00am 14.1 15.2 13.6 97 0.3 CALM 0 0 0 0 1021.3 1021.0 1.2
28/03:30am 14.1 15.3 13.8 98 0.2 CALM 0 0 0 0 1020.9 1020.7 1.2
28/03:00am 14.1 15.2 13.6 97 0.3 CALM 0 0 0 0 1020.9 1020.7 1.0
28/02:30am 14.3 14.2 13.8 97 0.3 SSW 7 9 4 5 1020.8 1020.6 1.0
28/02:00am 14.5 15.8 14.0 97 0.3 CALM 0 0 0 0 1021.0 1020.8 1.0
28/01:30am 14.6 15.9 14.1 97 0.3 CALM 0 6 0 3 1021.8 1021.5 0.8
28/01:00am 14.6 15.9 14.0 96 0.3 CALM 0 0 0 0 1022.2 1021.9 0.8
28/12:30am 14.6 15.9 14.0 96 0.3 CALM 0 0 0 0 1022.0 1021.7 0.8
28/12:00am 14.7 16.0 14.1 96 0.3 CALM 0 0 0 0 1022.4 1022.1 0.4
 
Date/Time
EST
Tmp

°C
App
Tmp
°C
Dew
Point
°C
Rel
Hum
%
Delta-T

°C
Wind Press
QNH
hPa
Press
MSL
hPa
Rain
since
9 am
mm
Dir
 
Spd
km/h
Gust
km/h
Spd
kts
Gust
kts
27/11:30pm 14.7 15.6 14.1 96 0.3 SE 2 7 1 4 1022.6 1022.3 0.4
27/11:00pm 14.6 15.8 13.8 95 0.5 CALM 0 0 0 0 1022.4 1022.1 0.4
27/10:30pm 14.5 14.8 13.5 94 0.6 NNE 4 7 2 4 1022.5 1022.2 0.4
27/10:00pm 14.9 16.1 13.8 93 0.6 CALM 0 0 0 0 1022.5 1022.2 0.4
27/09:30pm 15.4 15.6 14.1 92 0.8 E 6 7 3 4 1022.4 1022.1 0.4
27/09:00pm 15.7 16.6 13.9 89 1.0 WSW 2 7 1 4 1022.4 1022.1 0.4
27/08:30pm 15.8 16.0 14.2 90 0.9 SW 6 9 3 5 1022.0 1021.7 0.4
27/08:00pm 16.1 16.0 13.9 87 1.3 E 7 9 4 5 1021.1 1020.9 0.4
27/07:30pm 16.1 16.3 14.3 89 1.0 E 6 7 3 4 1021.5 1021.2 0.2
27/07:00pm 16.2 17.4 13.7 85 1.4 CALM 0 0 0 0 1020.9 1020.7 0.2
27/06:30pm 16.6 16.6 13.5 82 1.8 S 6 9 3 5 1020.8 1020.6 0.2
27/06:00pm 16.9 17.9 13.2 79 2.1 CALM 0 0 0 0 1020.9 1020.7 0.2
27/05:30pm 17.4 18.5 13.5 78 2.2 CALM 0 0 0 0 1020.7 1020.5 0.2
27/05:00pm 17.6 17.2 13.1 75 2.6 W 7 9 4 5 1020.7 1020.5 0.2
27/04:30pm 18.0 17.2 12.9 72 2.9 WSW 9 11 5 6 1020.4 1020.1 0.2
27/04:00pm 18.4 17.2 12.8 70 3.2 WNW 11 13 6 7 1020.5 1020.2 0.2
27/03:30pm 18.4 17.3 13.0 71 3.1 NW 11 13 6 7 1020.3 1020.0 0.2
27/03:00pm 17.9 17.1 13.0 73 2.8 NW 9 13 5 7 1020.4 1020.1 0.2
27/02:30pm 18.2 16.9 13.7 75 2.6 W 13 19 7 10 1020.8 1020.6 0.2
27/02:00pm 17.1 16.0 13.0 77 2.3 SW 11 15 6 8 1021.4 1021.1 0.2
27/01:30pm 16.5 15.6 12.7 78 2.1 WSW 9 11 5 6 1021.6 1021.3 0.2
27/01:00pm 16.0 14.6 13.3 84 1.5 SW 13 17 7 9 1021.5 1021.2 0.2
27/12:30pm 16.0 13.7 12.9 82 1.8 WSW 17 26 9 14 1021.8 1021.5 0.2
27/12:00pm 17.3 14.6 11.8 70 3.1 W 17 30 9 16 1022.0 1021.7 0.2
27/11:30am 19.0 18.5 12.5 66 3.7 NW 7 11 4 6 1021.8 1021.5 0.2
27/11:00am 20.7 19.8 10.5 52 5.6 N 6 9 3 5 1021.8 1021.5 0.0
27/10:30am 20.6 19.5 10.1 51 5.8 SSW 6 11 3 6 1022.2 1021.9 0.0
27/10:00am 19.7 18.8 9.3 51 5.6 SE 4 9 2 5 1022.7 1022.5 0.0
27/09:30am 18.0 16.2 9.4 57 4.6 SSW 9 13 5 7 1022.6 1022.3 0.0
27/09:00am 16.2 13.8 10.1 67 3.3 S 13 15 7 8 1022.5 1022.2 0.2
27/08:30am 15.1 14.0 12.1 82 1.7 SSW 9 11 5 6 1022.9 1022.7 0.2
27/08:00am 14.2 13.2 12.4 89 1.0 S 9 11 5 6 1022.6 1022.3 0.2
27/07:30am 13.7 14.1 11.4 86 1.3 CALM 0 0 0 0 1022.8 1022.6 0.2
27/07:00am 13.1 13.6 11.5 90 0.9 CALM 0 6 0 3 1022.6 1022.3 0.2
27/06:30am 12.9 13.4 11.5 91 0.8 CALM 0 6 0 3 1022.2 1021.9 0.2
27/06:00am 12.9 13.0 11.5 91 0.8 E 2 7 1 4 1022.3 1022.0 0.0
27/05:30am 12.8 11.9 11.2 90 0.9 S 7 13 4 7 1021.9 1021.6 0.0
27/05:00am 12.8 13.1 11.0 89 1.0 CALM 0 0 0 0 1021.3 1021.0 0.0
27/04:30am 12.8 13.0 10.5 86 1.2 CALM 0 0 0 0 1021.5 1021.2 0.0
27/04:00am 12.7 13.0 10.9 89 1.0 CALM 0 0 0 0 1021.6 1021.3 0.0
27/03:30am 12.7 12.2 10.6 87 1.1 NE 4 11 2 6 1021.8 1021.5 0.0
27/03:00am 12.4 12.2 10.5 88 1.0 W 2 9 1 5 1021.9 1021.6 0.0
27/02:30am 12.7 11.4 10.1 84 1.4 SSE 7 11 4 6 1021.6 1021.3 0.0
27/02:00am 12.6 11.7 10.5 87 1.1 ESE 6 9 3 5 1021.9 1021.6 0.0
27/01:30am 12.7 12.4 10.1 84 1.4 NE 2 6 1 3 1022.5 1022.2 0.0
27/01:00am 12.8 12.6 10.3 85 1.3 SW 2 6 1 3 1022.5 1022.2 0.0
27/12:30am 13.3 13.4 10.1 81 1.7 CALM 0 0 0 0 1022.2 1021.9 0.0
27/12:00am 13.4 13.2 9.1 75 2.2 CALM 0 0 0 0 1022.5 1022.2 0.0
 
Date/Time
EST
Tmp

°C
App
Tmp
°C
Dew
Point
°C
Rel
Hum
%
Delta-T

°C
Wind Press
QNH
hPa
Press
MSL
hPa
Rain
since
9 am
mm
Dir
 
Spd
km/h
Gust
km/h
Spd
kts
Gust
kts
26/11:30pm 13.9 12.2 8.3 69 2.9 SE 7 9 4 5 1022.5 1022.2 0.0
26/11:00pm 13.7 13.4 10.1 79 1.9 E 2 9 1 5 1022.8 1022.6 0.0
26/10:30pm 14.3 14.5 10.5 78 2.0 CALM 0 2 0 1 1022.9 1022.7 0.0
26/10:00pm 13.9 12.4 10.5 80 1.8 SSW 9 9 5 5 1022.7 1022.5 0.0
26/09:30pm 15.3 13.5 10.7 74 2.5 S 11 13 6 7 1022.7 1022.5 0.0
26/09:00pm 14.2 12.1 11.0 81 1.7 SSW 13 15 7 8 1022.6 1022.3 0.0
26/08:30pm 15.2 13.6 11.4 78 2.1 SSW 11 11 6 6 1022.5 1022.2 0.0
26/08:00pm 15.5 13.7 10.7 73 2.6 S 11 13 6 7 1022.4 1022.1 0.0
26/07:30pm 17.4 15.5 10.5 64 3.8 SSE 11 13 6 7 1022.1 1021.8 0.0
26/07:00pm 17.6 16.0 10.2 62 4.0 S 9 11 5 6 1021.8 1021.5 0.0
26/06:30pm 19.8 17.8 10.2 54 5.3 WSW 11 15 6 8 1021.3 1021.0 0.0
26/06:00pm 20.3 18.8 10.4 53 5.5 WSW 9 13 5 7 1020.8 1020.6 0.0
26/05:30pm 21.6 20.1 10.4 49 6.2 SW 9 13 5 7 1020.4 1020.1 0.0
26/05:00pm 23.4 21.1 10.5 44 7.2 W 13 19 7 10 1019.9 1019.6 0.0
26/04:30pm 24.2 21.5 10.5 42 7.7 WSW 15 20 8 11 1019.5 1019.2 0.0
26/04:00pm 24.7 21.6 10.2 40 8.2 WSW 17 28 9 15 1019.3 1019.0 0.0
26/03:30pm 25.1 22.3 11.3 42 7.9 W 17 22 9 12 1019.2 1018.9 0.0
26/03:00pm 25.1 22.3 11.3 42 7.9 WNW 17 24 9 13 1019.2 1018.9 0.0
26/02:30pm 25.0 22.5 11.2 42 7.9 WSW 15 22 8 12 1019.4 1019.1 0.0
26/02:00pm 24.9 22.2 11.8 44 7.6 W 17 26 9 14 1019.7 1019.4 0.0
26/01:30pm 25.2 23.1 12.4 45 7.5 WNW 15 26 8 14 1019.9 1019.6 0.0
26/01:00pm 24.6 21.5 12.2 46 7.2 W 20 28 11 15 1020.4 1020.1 0.0
26/12:30pm 24.0 21.9 11.3 45 7.3 NNW 13 26 7 14 1020.6 1020.3 0.0
26/12:00pm 24.0 22.7 12.6 49 6.7 WSW 11 19 6 10 1021.5 1021.2 0.0
26/11:30am 22.6 21.0 12.8 54 5.7 NW 13 20 7 11 1022.1 1021.8 0.0
26/11:00am 21.8 21.5 13.2 58 5.0 E 7 11 4 6 1022.6 1022.3 0.0
26/10:30am 20.6 19.8 11.8 57 5.0 N 7 11 4 6 1022.9 1022.7 0.0

Latest Capital City Observations: Canberra | Sydney | Melbourne | Brisbane | Adelaide | Perth | Hobart | Darwin

Other Formats:

Comma delimited format used in spreadsheet applications
http://www.bom.gov.au/fwo/IDQ60901/IDQ60901.94549.axf

JavaScript Object Notation format (JSON) in row-major order
http://www.bom.gov.au/fwo/IDQ60901/IDQ60901.94549.json